createdAt,value
2017-07-05T00:00:52.592Z,0
2017-07-05T00:01:52.638Z,0
2017-07-05T00:02:52.672Z,0
2017-07-05T00:03:52.715Z,0
2017-07-05T00:04:53.072Z,0
2017-07-05T00:05:52.791Z,0
2017-07-05T00:06:52.830Z,0
2017-07-05T00:07:52.867Z,0
2017-07-05T00:08:52.904Z,0
2017-07-05T00:09:52.952Z,0
2017-07-05T00:10:52.989Z,0
2017-07-05T00:11:53.023Z,0
2017-07-05T00:12:53.070Z,0
2017-07-05T00:13:53.101Z,0
2017-07-05T00:14:53.146Z,0
2017-07-05T00:15:53.187Z,0
2017-07-05T00:16:53.226Z,0
2017-07-05T00:17:53.258Z,0
2017-07-05T00:18:53.303Z,0
2017-07-05T00:19:53.343Z,0
2017-07-05T00:20:53.375Z,0
2017-07-05T00:21:53.416Z,0
2017-07-05T00:22:53.458Z,0
2017-07-05T00:23:53.493Z,0
2017-07-05T00:24:53.539Z,0
2017-07-05T00:25:53.577Z,0
2017-07-05T00:26:53.616Z,0
2017-07-05T00:27:53.658Z,0
2017-07-05T00:28:53.689Z,0
2017-07-05T00:29:53.736Z,0
2017-07-05T00:30:53.773Z,0
2017-07-05T00:31:53.807Z,0
2017-07-05T00:32:53.852Z,0
2017-07-05T00:33:53.892Z,0
2017-07-05T00:34:53.924Z,0
2017-07-05T00:35:53.971Z,0
2017-07-05T00:36:54.008Z,0
2017-07-05T00:37:54.055Z,0
2017-07-05T00:38:54.082Z,0
2017-07-05T00:39:54.128Z,0
2017-07-05T00:40:54.160Z,0
2017-07-05T00:41:54.199Z,0
2017-07-05T00:42:54.247Z,0
2017-07-05T00:43:54.285Z,0
2017-07-05T00:44:54.318Z,0
2017-07-05T00:45:54.364Z,0
2017-07-05T00:46:54.399Z,0
2017-07-05T00:47:54.440Z,0
2017-07-05T00:48:54.792Z,0
2017-07-05T00:49:54.513Z,0
2017-07-05T00:50:54.573Z,0
2017-07-05T00:51:54.591Z,0
2017-07-05T00:52:54.635Z,0
2017-07-05T00:53:54.676Z,0
2017-07-05T00:54:54.710Z,0
2017-07-05T00:55:54.754Z,0
2017-07-05T00:56:54.794Z,0
2017-07-05T00:57:54.833Z,0
2017-07-05T00:58:54.873Z,0
2017-07-05T00:59:54.912Z,0
2017-07-05T01:00:54.950Z,0
2017-07-05T01:01:54.990Z,0
2017-07-05T01:02:55.024Z,0
2017-07-05T01:03:55.078Z,0
2017-07-05T01:04:55.109Z,0
2017-07-05T01:05:55.140Z,0
2017-07-05T01:06:55.193Z,0
2017-07-05T01:07:55.226Z,0
2017-07-05T01:08:55.264Z,0
2017-07-05T01:09:55.304Z,0
2017-07-05T01:10:55.335Z,0
2017-07-05T01:11:55.383Z,0
2017-07-05T01:12:55.417Z,0
2017-07-05T01:13:55.461Z,0
2017-07-05T01:14:55.504Z,0
2017-07-05T01:15:55.541Z,0
2017-07-05T01:16:55.576Z,0
2017-07-05T01:17:55.623Z,0
2017-07-05T01:18:55.656Z,0
2017-07-05T01:19:55.695Z,0
2017-07-05T01:20:56.049Z,0
2017-07-05T01:21:55.776Z,0
2017-07-05T01:22:55.818Z,0
2017-07-05T01:23:56.166Z,0
2017-07-05T01:24:55.886Z,0
2017-07-05T01:25:55.932Z,0
2017-07-05T01:26:55.964Z,0
2017-07-05T01:27:56.009Z,0
2017-07-05T01:28:56.048Z,0
2017-07-05T01:29:56.088Z,0
2017-07-05T01:30:56.128Z,0
2017-07-05T01:31:56.166Z,0
2017-07-05T01:32:56.206Z,0
2017-07-05T01:33:56.238Z,0
2017-07-05T01:34:56.290Z,0
2017-07-05T01:35:56.323Z,0
2017-07-05T01:36:56.359Z,0
2017-07-05T01:37:56.393Z,0
2017-07-05T01:38:56.437Z,0
2017-07-05T01:39:56.477Z,0
2017-07-05T01:40:56.512Z,0
2017-07-05T01:41:56.556Z,0
2017-07-05T01:42:56.594Z,0
2017-07-05T01:43:56.627Z,0
2017-07-05T01:44:56.676Z,0
2017-07-05T01:45:56.711Z,0
2017-07-05T01:46:56.745Z,0
2017-07-05T01:47:56.793Z,0
2017-07-05T01:48:56.829Z,0
2017-07-05T01:49:56.861Z,0
2017-07-05T01:50:56.910Z,0
2017-07-05T01:51:56.942Z,0
2017-07-05T01:52:56.986Z,0
2017-07-05T01:53:57.027Z,0
2017-07-05T01:54:57.064Z,0
2017-07-05T01:55:57.105Z,0
2017-07-05T01:56:57.147Z,0
2017-07-05T01:57:57.179Z,0
2017-07-05T01:58:57.223Z,0
2017-07-05T01:59:57.256Z,0
2017-07-05T02:00:57.300Z,0
2017-07-05T02:01:57.334Z,0
2017-07-05T02:02:57.379Z,0
2017-07-05T02:03:57.420Z,0
2017-07-05T02:04:57.451Z,0
2017-07-05T02:05:57.497Z,0
2017-07-05T02:06:57.537Z,0
2017-07-05T02:07:57.575Z,0
2017-07-05T02:08:57.614Z,0
2017-07-05T02:09:57.654Z,0
2017-07-05T02:10:57.697Z,0
2017-07-05T02:11:57.725Z,0
2017-07-05T02:12:57.773Z,0
2017-07-05T02:13:57.811Z,0
2017-07-05T02:14:57.843Z,0
2017-07-05T02:15:57.882Z,0
2017-07-05T02:16:57.934Z,0
2017-07-05T02:17:57.963Z,0
2017-07-05T02:18:58.002Z,0
2017-07-05T02:19:58.046Z,0
2017-07-05T02:20:58.083Z,0
2017-07-05T02:21:58.125Z,0
2017-07-05T02:22:58.155Z,0
2017-07-05T02:23:58.202Z,0
2017-07-05T02:24:58.242Z,0
2017-07-05T02:25:58.281Z,0
2017-07-05T02:26:58.321Z,4
2017-07-05T02:27:58.355Z,4
2017-07-05T02:28:58.405Z,4
2017-07-05T02:29:58.490Z,4
2017-07-05T02:30:58.480Z,4
2017-07-05T02:31:58.510Z,0
2017-07-05T02:32:58.557Z,4
2017-07-05T02:33:58.594Z,4
2017-07-05T02:34:58.627Z,4
2017-07-05T02:35:58.667Z,8
2017-07-05T02:36:58.711Z,4
2017-07-05T02:37:58.753Z,8
2017-07-05T02:38:58.785Z,8
2017-07-05T02:39:58.824Z,12
2017-07-05T02:40:58.865Z,8
2017-07-05T02:41:58.909Z,12
2017-07-05T02:42:58.947Z,12
2017-07-05T02:43:58.984Z,12
2017-07-05T02:44:59.028Z,12
2017-07-05T02:45:59.064Z,12
2017-07-05T02:46:59.106Z,12
2017-07-05T02:47:59.136Z,16
2017-07-05T02:48:59.181Z,12
2017-07-05T02:49:59.223Z,16
2017-07-05T02:50:59.262Z,16
2017-07-05T02:51:59.294Z,20
2017-07-05T02:52:59.339Z,20
2017-07-05T02:53:59.379Z,24
2017-07-05T02:54:59.424Z,36
2017-07-05T02:55:59.775Z,44
2017-07-05T02:56:59.497Z,48
2017-07-05T02:57:59.535Z,56
2017-07-05T02:58:59.570Z,60
2017-07-05T02:59:59.626Z,68
2017-07-05T03:00:59.647Z,80
2017-07-05T03:01:59.694Z,92
2017-07-05T03:02:59.724Z,108
2017-07-05T03:03:59.771Z,124
2017-07-05T03:04:59.812Z,144
2017-07-05T03:05:59.842Z,168
2017-07-05T03:06:59.890Z,184
2017-07-05T03:07:59.928Z,204
2017-07-05T03:08:59.959Z,220
2017-07-05T03:09:59.998Z,232
2017-07-05T03:11:00.044Z,240
2017-07-05T03:12:00.080Z,256
2017-07-05T03:13:00.115Z,268
2017-07-05T03:14:00.161Z,284
2017-07-05T03:15:00.203Z,300
2017-07-05T03:16:00.233Z,324
2017-07-05T03:17:00.277Z,344
2017-07-05T03:18:00.315Z,372
2017-07-05T03:19:00.356Z,408
2017-07-05T03:20:00.395Z,440
2017-07-05T03:21:00.433Z,456
2017-07-05T03:22:00.466Z,472
2017-07-05T03:23:00.518Z,488
2017-07-05T03:24:00.550Z,520
2017-07-05T03:25:00.592Z,556
2017-07-05T03:26:00.627Z,588
2017-07-05T03:27:00.665Z,620
2017-07-05T03:28:00.711Z,648
2017-07-05T03:29:00.744Z,680
2017-07-05T03:30:00.787Z,716
2017-07-05T03:31:00.825Z,756
2017-07-05T03:32:00.854Z,776
2017-07-05T03:33:00.902Z,788
2017-07-05T03:34:00.942Z,796
2017-07-05T03:35:00.974Z,808
2017-07-05T03:36:01.019Z,844
2017-07-05T03:37:01.059Z,892
2017-07-05T03:38:01.097Z,948
2017-07-05T03:39:01.130Z,1068
2017-07-05T03:40:01.175Z,1212
2017-07-05T03:41:01.213Z,1320
2017-07-05T03:42:01.254Z,1384
2017-07-05T03:43:01.291Z,1456
2017-07-05T03:44:01.323Z,1532
2017-07-05T03:45:01.364Z,1604
2017-07-05T03:46:01.408Z,1760
2017-07-05T03:47:01.447Z,1712
2017-07-05T03:48:01.483Z,2124
2017-07-05T03:49:01.526Z,2244
2017-07-05T03:50:01.562Z,2128
2017-07-05T03:51:01.601Z,3548
2017-07-05T03:52:01.644Z,3844
2017-07-05T03:53:01.683Z,4408
2017-07-05T03:54:01.741Z,4544
2017-07-05T03:55:01.757Z,4480
2017-07-05T03:56:01.800Z,4428
2017-07-05T03:57:01.840Z,4160
2017-07-05T03:58:01.879Z,3248
2017-07-05T03:59:01.920Z,3708
2017-07-05T04:00:01.959Z,2708
2017-07-05T04:01:01.999Z,2892
2017-07-05T04:02:02.033Z,3108
2017-07-05T04:03:02.133Z,4012
2017-07-05T04:04:02.113Z,4644
2017-07-05T04:05:02.477Z,4580
2017-07-05T04:06:02.198Z,4404
2017-07-05T04:07:02.235Z,4840
2017-07-05T04:08:02.273Z,4608
2017-07-05T04:09:02.313Z,4400
2017-07-05T04:10:02.361Z,4400
2017-07-05T04:11:02.393Z,6096
2017-07-05T04:12:02.438Z,4736
2017-07-05T04:13:02.478Z,4344
2017-07-05T04:14:02.517Z,4416
2017-07-05T04:15:02.562Z,3616
2017-07-05T04:16:02.593Z,3512
2017-07-05T04:17:02.954Z,3432
2017-07-05T04:18:02.681Z,3736
2017-07-05T04:19:02.722Z,3884
2017-07-05T04:20:02.754Z,3984
2017-07-05T04:21:02.802Z,7120
2017-07-05T04:22:02.876Z,4620
2017-07-05T04:23:02.891Z,6140
2017-07-05T04:24:02.922Z,9632
2017-07-05T04:25:02.956Z,8840
2017-07-05T04:26:03.001Z,9936
2017-07-05T04:27:03.039Z,10940
2017-07-05T04:28:03.077Z,7240
2017-07-05T04:29:03.121Z,6740
2017-07-05T04:30:03.169Z,5728
2017-07-05T04:31:03.205Z,5476
2017-07-05T04:32:03.246Z,6360
2017-07-05T04:33:03.285Z,11016
2017-07-05T04:34:03.320Z,4440
2017-07-05T04:35:03.369Z,4228
2017-07-05T04:36:03.409Z,8600
2017-07-05T04:37:03.445Z,5424
2017-07-05T04:38:03.485Z,4052
2017-07-05T04:39:03.525Z,6952
2017-07-05T04:40:03.577Z,4600
2017-07-05T04:41:03.610Z,6128
2017-07-05T04:42:03.656Z,3772
2017-07-05T04:43:03.695Z,3696
2017-07-05T04:44:03.736Z,6500
2017-07-05T04:45:03.773Z,9164
2017-07-05T04:46:03.819Z,11464
2017-07-05T04:47:03.863Z,10696
2017-07-05T04:48:03.901Z,9392
2017-07-05T04:49:03.957Z,8456
2017-07-05T04:50:03.982Z,10268
2017-07-05T04:51:04.022Z,12288
2017-07-05T04:52:04.065Z,15072
2017-07-05T04:53:04.104Z,16160
2017-07-05T04:54:04.149Z,15648
2017-07-05T04:55:04.185Z,14592
2017-07-05T04:56:04.225Z,14144
2017-07-05T04:57:04.274Z,13856
2017-07-05T04:58:04.309Z,14332
2017-07-05T04:59:04.352Z,13264
2017-07-05T05:00:04.416Z,11748
2017-07-05T05:01:04.443Z,10836
2017-07-05T05:02:04.486Z,10644
2017-07-05T05:03:04.530Z,10232
2017-07-05T05:04:04.567Z,9952
2017-07-05T05:05:04.614Z,9660
2017-07-05T05:06:04.652Z,10860
2017-07-05T05:07:04.698Z,10544
2017-07-05T05:08:04.743Z,10884
2017-07-05T05:09:05.105Z,10976
2017-07-05T05:10:04.829Z,11464
2017-07-05T05:11:04.869Z,12404
2017-07-05T05:12:04.913Z,13748
2017-07-05T05:13:04.951Z,14952
2017-07-05T05:14:04.998Z,14684
2017-07-05T05:15:05.040Z,14204
2017-07-05T05:16:05.086Z,12692
2017-07-05T05:17:05.126Z,12084
2017-07-05T05:18:05.160Z,14240
2017-07-05T05:19:05.203Z,11832
2017-07-05T05:20:05.253Z,11912
2017-07-05T05:21:05.297Z,12172
2017-07-05T05:22:05.332Z,12048
2017-07-05T05:23:05.381Z,11712
2017-07-05T05:24:05.425Z,11776
2017-07-05T05:25:05.470Z,11720
2017-07-05T05:26:05.504Z,11928
2017-07-05T05:27:05.549Z,12220
2017-07-05T05:28:05.592Z,12828
2017-07-05T05:29:05.638Z,12868
2017-07-05T05:30:05.674Z,12608
2017-07-05T05:31:05.717Z,13712
2017-07-05T05:32:05.758Z,14624
2017-07-05T05:33:05.806Z,15484
2017-07-05T05:34:05.860Z,14504
2017-07-05T05:35:05.887Z,13952
2017-07-05T05:36:05.936Z,13292
2017-07-05T05:37:06.297Z,12520
2017-07-05T05:38:06.013Z,11716
2017-07-05T05:39:06.058Z,11964
2017-07-05T05:40:06.096Z,12336
2017-07-05T05:41:06.141Z,13624
2017-07-05T05:42:06.190Z,12476
2017-07-05T05:43:06.235Z,11632
2017-07-05T05:44:06.271Z,12336
2017-07-05T05:45:06.320Z,11640
2017-07-05T05:46:06.363Z,12124
2017-07-05T05:47:06.416Z,12828
2017-07-05T05:48:06.440Z,14120
2017-07-05T05:49:06.482Z,17056
2017-07-05T05:50:06.526Z,19264
2017-07-05T05:51:06.592Z,14356
2017-07-05T05:52:06.609Z,13028
2017-07-05T05:53:06.654Z,13288
2017-07-05T05:54:06.698Z,14240
2017-07-05T05:55:06.748Z,16192
2017-07-05T05:56:06.784Z,24864
2017-07-05T05:57:07.656Z,20256
2017-07-05T05:58:07.112Z,11580
2017-07-05T05:59:06.909Z,10868
2017-07-05T06:00:06.970Z,10584
2017-07-05T06:01:07.002Z,10212
2017-07-05T06:02:07.285Z,10516
2017-07-05T06:03:07.084Z,11276
2017-07-05T06:04:07.129Z,10084
2017-07-05T06:05:07.169Z,10416
2017-07-05T06:06:07.212Z,10288
2017-07-05T06:07:07.362Z,10348
2017-07-05T06:08:07.305Z,13744
2017-07-05T06:09:07.341Z,10340
2017-07-05T06:10:07.392Z,10908
2017-07-05T06:11:07.433Z,11456
2017-07-05T06:12:07.475Z,12256
2017-07-05T06:13:07.514Z,12852
2017-07-05T06:14:07.881Z,14468
2017-07-05T06:15:07.606Z,13136
2017-07-05T06:16:07.644Z,12608
2017-07-05T06:17:07.683Z,12564
2017-07-05T06:18:07.729Z,12540
2017-07-05T06:19:07.785Z,12716
2017-07-05T06:20:07.818Z,13472
2017-07-05T06:21:07.857Z,13588
2017-07-05T06:22:07.904Z,13016
2017-07-05T06:23:07.945Z,11828
2017-07-05T06:24:07.985Z,11484
2017-07-05T06:25:08.031Z,11372
2017-07-05T06:26:08.071Z,10608
2017-07-05T06:27:08.113Z,9380
2017-07-05T06:28:08.156Z,8444
2017-07-05T06:29:08.206Z,7364
2017-07-05T06:30:08.248Z,6076
2017-07-05T06:31:08.284Z,5432
2017-07-05T06:32:08.330Z,5664
2017-07-05T06:33:08.375Z,6764
2017-07-05T06:34:08.415Z,8004
2017-07-05T06:35:08.460Z,7992
2017-07-05T06:36:08.494Z,7896
2017-07-05T06:37:08.652Z,8836
2017-07-05T06:38:08.588Z,9800
2017-07-05T06:39:08.622Z,11124
2017-07-05T06:40:08.673Z,13960
2017-07-05T06:41:08.708Z,17440
2017-07-05T06:42:08.757Z,20672
2017-07-05T06:43:08.791Z,18624
2017-07-05T06:44:08.842Z,17952
2017-07-05T06:45:08.876Z,20384
2017-07-05T06:46:08.927Z,20480
2017-07-05T06:47:08.969Z,31744
2017-07-05T06:48:09.011Z,27264
2017-07-05T06:49:09.063Z,26304
2017-07-05T06:50:09.093Z,18752
2017-07-05T06:51:09.144Z,15832
2017-07-05T06:52:09.190Z,14936
2017-07-05T06:53:09.236Z,13464
2017-07-05T06:54:09.275Z,11804
2017-07-05T06:55:09.634Z,10028
2017-07-05T06:56:09.355Z,9440
2017-07-05T06:57:09.411Z,8840
2017-07-05T06:58:10.289Z,7884
2017-07-05T06:59:09.492Z,7100
2017-07-05T07:00:09.532Z,6688
2017-07-05T07:01:10.411Z,6356
2017-07-05T07:02:09.621Z,6276
2017-07-05T07:03:09.664Z,6572
2017-07-05T07:04:09.706Z,6956
2017-07-05T07:05:10.741Z,6988
2017-07-05T07:06:09.802Z,6296
2017-07-05T07:07:09.838Z,5712
2017-07-05T07:08:09.878Z,5524
2017-07-05T07:09:09.921Z,5456
2017-07-05T07:10:09.973Z,5488
2017-07-05T07:11:10.010Z,5572
2017-07-05T07:12:10.057Z,5500
2017-07-05T07:13:10.103Z,5120
2017-07-05T07:14:10.138Z,4824
2017-07-05T07:15:10.184Z,4696
2017-07-05T07:16:10.222Z,4416
2017-07-05T07:17:10.271Z,3988
2017-07-05T07:18:10.313Z,3444
2017-07-05T07:19:10.896Z,3108
2017-07-05T07:20:10.398Z,3260
2017-07-05T07:21:10.441Z,3736
2017-07-05T07:22:10.605Z,3932
2017-07-05T07:23:10.519Z,3988
2017-07-05T07:24:10.566Z,3772
2017-07-05T07:25:10.626Z,3456
2017-07-05T07:26:10.648Z,3352
2017-07-05T07:27:10.686Z,3068
2017-07-05T07:28:10.733Z,2880
2017-07-05T07:29:10.777Z,3144
2017-07-05T07:30:10.811Z,3496
2017-07-05T07:31:10.855Z,3576
2017-07-05T07:32:10.902Z,3584
2017-07-05T07:33:10.950Z,3796
2017-07-05T07:34:11.055Z,3948
2017-07-05T07:35:11.026Z,4296
2017-07-05T07:36:11.069Z,4584
2017-07-05T07:37:11.110Z,5036
2017-07-05T07:38:11.146Z,5184
2017-07-05T07:39:11.188Z,5084
2017-07-05T07:40:11.228Z,4884
2017-07-05T07:41:15.386Z,4860
2017-07-05T07:42:17.967Z,4892
2017-07-05T07:43:11.353Z,4980
2017-07-05T07:44:11.395Z,5296
2017-07-05T07:45:13.514Z,5488
2017-07-05T07:46:11.478Z,6468
2017-07-05T07:47:11.516Z,6964
2017-07-05T07:48:11.559Z,6860
2017-07-05T07:49:14.567Z,6460
2017-07-05T07:50:13.661Z,6188
2017-07-05T07:51:11.733Z,6120
2017-07-05T07:52:11.739Z,5808
2017-07-05T07:53:11.770Z,5424
2017-07-05T07:54:11.810Z,5320
2017-07-05T07:55:11.850Z,5312
2017-07-05T07:56:11.969Z,5200
2017-07-05T07:57:11.936Z,5016
2017-07-05T07:58:11.992Z,4876
2017-07-05T07:59:12.030Z,5468
2017-07-05T08:00:12.061Z,5952
2017-07-05T08:01:12.105Z,5972
2017-07-05T08:02:12.287Z,5820
2017-07-05T08:03:12.181Z,5872
2017-07-05T08:04:12.234Z,5736
2017-07-05T08:05:12.269Z,5600
2017-07-05T08:06:12.311Z,5216
2017-07-05T08:07:12.349Z,4756
2017-07-05T08:08:12.391Z,4440
2017-07-05T08:09:12.437Z,4248
2017-07-05T08:10:12.478Z,3980
2017-07-05T08:11:12.523Z,3820
2017-07-05T08:12:12.562Z,3904
2017-07-05T08:13:12.597Z,3952
2017-07-05T08:14:12.643Z,3872
2017-07-05T08:15:12.680Z,3576
2017-07-05T08:16:12.730Z,3336
2017-07-05T08:17:12.762Z,3088
2017-07-05T08:18:12.808Z,2960
2017-07-05T08:19:12.852Z,2916
2017-07-05T08:20:12.894Z,2776
2017-07-05T08:21:12.935Z,2584
2017-07-05T08:22:12.970Z,2480
2017-07-05T08:23:13.018Z,2460
2017-07-05T08:24:13.053Z,2476
2017-07-05T08:25:13.094Z,2508
2017-07-05T08:26:13.144Z,2568
2017-07-05T08:27:13.178Z,2516
2017-07-05T08:28:13.223Z,2488
2017-07-05T08:29:13.258Z,2464
2017-07-05T08:30:13.307Z,2468
2017-07-05T08:31:13.349Z,2564
2017-07-05T08:32:13.381Z,2620
2017-07-05T08:33:13.431Z,2728
2017-07-05T08:34:13.472Z,2972
2017-07-05T08:35:13.509Z,3440
2017-07-05T08:36:13.550Z,3884
2017-07-05T08:37:13.596Z,3992
2017-07-05T08:38:13.638Z,3860
2017-07-05T08:39:13.677Z,3852
2017-07-05T08:40:13.711Z,4184
2017-07-05T08:41:13.761Z,4680
2017-07-05T08:42:13.796Z,4840
2017-07-05T08:43:13.844Z,4980
2017-07-05T08:44:13.880Z,5264
2017-07-05T08:45:13.926Z,5640
2017-07-05T08:46:13.966Z,5368
2017-07-05T08:47:14.001Z,4928
2017-07-05T08:48:14.042Z,4312
2017-07-05T08:49:14.091Z,4116
2017-07-05T08:50:14.125Z,4344
2017-07-05T08:51:14.169Z,4548
2017-07-05T08:52:14.209Z,4936
2017-07-05T08:53:14.258Z,4868
2017-07-05T08:54:14.293Z,4544
2017-07-05T08:55:14.332Z,4364
2017-07-05T08:56:14.383Z,4648
2017-07-05T08:57:14.427Z,5052
2017-07-05T08:58:14.462Z,5124
2017-07-05T08:59:14.502Z,5932
2017-07-05T09:00:14.544Z,8684
2017-07-05T09:01:16.698Z,9960
2017-07-05T09:02:14.622Z,11016
2017-07-05T09:03:14.985Z,12416
2017-07-05T09:04:14.719Z,16960
2017-07-05T09:05:14.755Z,23296
2017-07-05T09:06:14.800Z,27872
2017-07-05T09:07:14.838Z,22080
2017-07-05T09:08:14.879Z,27136
2017-07-05T09:09:14.916Z,30400
2017-07-05T09:10:14.963Z,32032
2017-07-05T09:11:15.007Z,49312
2017-07-05T09:12:15.045Z,50496
2017-07-05T09:13:15.095Z,27520
2017-07-05T09:14:15.130Z,22784
2017-07-05T09:15:15.180Z,24736
2017-07-05T09:16:15.217Z,20736
2017-07-05T09:17:15.295Z,18432
2017-07-05T09:18:15.306Z,16960
2017-07-05T09:19:15.358Z,15956
2017-07-05T09:20:15.401Z,14756
2017-07-05T09:21:15.789Z,14120
2017-07-05T09:22:15.490Z,15812
2017-07-05T09:23:15.535Z,16060
2017-07-05T09:24:15.572Z,15732
2017-07-05T09:25:15.622Z,14560
2017-07-05T09:26:15.661Z,13896
2017-07-05T09:27:15.712Z,16040
2017-07-05T09:28:15.756Z,15256
2017-07-05T09:29:15.795Z,15216
2017-07-05T09:30:15.847Z,13964
2017-07-05T09:31:15.886Z,12960
2017-07-05T09:32:15.938Z,13124
2017-07-05T09:33:15.974Z,13868
2017-07-05T09:34:16.016Z,19488
2017-07-05T09:35:16.068Z,20224
2017-07-05T09:36:16.113Z,29504
2017-07-05T09:37:16.156Z,21216
2017-07-05T09:38:16.194Z,24320
2017-07-05T09:39:16.240Z,28256
2017-07-05T09:40:16.612Z,27616
2017-07-05T09:41:16.335Z,25152
2017-07-05T09:42:16.372Z,26880
2017-07-05T09:43:16.420Z,26336
2017-07-05T09:44:16.483Z,26624
2017-07-05T09:45:16.736Z,27296
2017-07-05T09:46:16.561Z,22272
2017-07-05T09:47:16.607Z,25504
2017-07-05T09:48:16.646Z,24480
2017-07-05T09:49:16.698Z,21472
2017-07-05T09:50:16.755Z,22272
2017-07-05T09:51:16.784Z,25952
2017-07-05T09:52:16.827Z,24896
2017-07-05T09:53:16.874Z,26496
2017-07-05T09:54:16.928Z,27840
2017-07-05T09:55:16.983Z,24768
2017-07-05T09:56:17.017Z,24800
2017-07-05T09:57:17.068Z,27232
2017-07-05T09:58:17.105Z,21952
2017-07-05T09:59:17.157Z,47328
2017-07-05T10:00:17.196Z,29632
2017-07-05T10:01:17.248Z,46144
2017-07-05T10:02:17.294Z,45952
2017-07-05T10:03:17.343Z,29344
2017-07-05T10:04:17.386Z,28288
2017-07-05T10:05:17.427Z,25152
2017-07-05T10:06:17.479Z,42688
2017-07-05T10:07:17.522Z,29760
2017-07-05T10:08:17.569Z,22208
2017-07-05T10:09:17.615Z,23072
2017-07-05T10:10:17.661Z,28384
2017-07-05T10:11:17.708Z,51744
2017-07-05T10:12:17.767Z,27616
2017-07-05T10:13:17.810Z,38848
2017-07-05T10:14:17.850Z,33952
2017-07-05T10:15:17.904Z,55136
2017-07-05T10:16:17.951Z,69824
2017-07-05T10:17:17.997Z,80512
2017-07-05T10:18:18.049Z,63936
2017-07-05T10:19:18.094Z,81216
2017-07-05T10:20:18.153Z,81888
2017-07-05T10:21:18.191Z,90912
2017-07-05T10:22:18.234Z,86016
2017-07-05T10:23:18.287Z,75328
2017-07-05T10:24:18.342Z,75008
2017-07-05T10:25:18.384Z,32416
2017-07-05T10:26:18.440Z,32736
2017-07-05T10:27:18.486Z,25216
2017-07-05T10:28:18.545Z,31168
2017-07-05T10:29:18.587Z,24768
2017-07-05T10:30:18.645Z,30304
2017-07-05T10:31:18.692Z,33440
2017-07-05T10:32:18.744Z,37280
2017-07-05T10:33:18.787Z,23968
2017-07-05T10:34:18.860Z,34752
2017-07-05T10:35:18.887Z,42528
2017-07-05T10:36:18.945Z,26464
2017-07-05T10:37:18.987Z,42112
2017-07-05T10:38:19.042Z,34976
2017-07-05T10:39:19.093Z,36128
2017-07-05T10:40:19.137Z,25824
2017-07-05T10:41:19.195Z,23136
2017-07-05T10:42:19.234Z,21952
2017-07-05T10:43:19.291Z,41600
2017-07-05T10:44:19.339Z,24864
2017-07-05T10:45:19.380Z,24352
2017-07-05T10:46:19.435Z,24672
2017-07-05T10:47:19.478Z,35936
2017-07-05T10:48:19.523Z,27872
2017-07-05T10:49:19.580Z,48544
2017-07-05T10:50:19.624Z,46848
2017-07-05T10:51:19.672Z,60960
2017-07-05T10:52:19.727Z,45888
2017-07-05T10:53:19.774Z,55968
2017-07-05T10:54:19.828Z,77824
2017-07-05T10:55:19.866Z,61568
2017-07-05T10:56:19.922Z,58368
2017-07-05T10:57:19.979Z,57888
2017-07-05T10:58:20.013Z,58592
2017-07-05T10:59:20.079Z,75168
2017-07-05T11:00:20.340Z,90368
2017-07-05T11:01:20.169Z,99072
2017-07-05T11:02:20.212Z,92896
2017-07-05T11:03:20.267Z,88320
2017-07-05T11:04:20.313Z,85440
2017-07-05T11:05:20.372Z,59968
2017-07-05T11:06:20.420Z,45056
2017-07-05T11:07:20.783Z,27488
2017-07-05T11:08:20.526Z,23520
2017-07-05T11:09:20.564Z,22944
2017-07-05T11:10:20.612Z,22080
2017-07-05T11:11:20.684Z,24064
2017-07-05T11:12:20.721Z,23872
2017-07-05T11:13:20.765Z,23936
2017-07-05T11:14:20.820Z,23168
2017-07-05T11:15:20.864Z,23680
2017-07-05T11:16:20.916Z,21120
2017-07-05T11:17:20.968Z,18400
2017-07-05T11:18:21.018Z,16944
2017-07-05T11:19:21.068Z,16432
2017-07-05T11:20:21.485Z,15680
2017-07-05T11:21:21.190Z,15076
2017-07-05T11:22:21.204Z,14812
2017-07-05T11:23:21.271Z,14604
2017-07-05T11:24:21.300Z,15052
2017-07-05T11:25:21.351Z,14904
2017-07-05T11:26:21.404Z,15288
2017-07-05T11:27:21.451Z,16284
2017-07-05T11:28:21.497Z,17000
2017-07-05T11:29:21.539Z,17920
2017-07-05T11:30:21.909Z,17792
2017-07-05T11:31:21.640Z,16788
2017-07-05T11:32:21.680Z,16864
2017-07-05T11:33:21.733Z,17696
2017-07-05T11:34:21.781Z,17536
2017-07-05T11:35:21.821Z,17644
2017-07-05T11:36:21.873Z,16984
2017-07-05T11:37:21.918Z,18144
2017-07-05T11:38:21.959Z,18560
2017-07-05T11:39:22.020Z,18400
2017-07-05T11:40:22.063Z,18016
2017-07-05T11:41:22.101Z,18464
2017-07-05T11:42:22.146Z,17888
2017-07-05T11:43:22.199Z,16576
2017-07-05T11:44:22.239Z,15496
2017-07-05T11:45:22.291Z,14504
2017-07-05T11:46:22.333Z,13792
2017-07-05T11:47:22.521Z,14072
2017-07-05T11:48:22.440Z,14920
2017-07-05T11:49:22.471Z,15252
2017-07-05T11:50:22.516Z,14632
2017-07-05T11:51:22.893Z,14808
2017-07-05T11:52:22.608Z,14408
2017-07-05T11:53:22.679Z,14188
2017-07-05T11:54:22.702Z,13816
2017-07-05T11:55:22.747Z,13004
2017-07-05T11:56:22.805Z,12368
2017-07-05T11:57:22.844Z,11904
2017-07-05T11:58:22.891Z,11276
2017-07-05T11:59:22.975Z,11064
2017-07-05T12:00:22.977Z,11244
2017-07-05T12:01:23.028Z,11612
2017-07-05T12:02:23.079Z,11808
2017-07-05T12:03:23.131Z,11956
2017-07-05T12:04:23.164Z,12608
2017-07-05T12:05:23.206Z,13560
2017-07-05T12:06:23.250Z,14600
2017-07-05T12:07:23.294Z,14872
2017-07-05T12:08:23.343Z,15760
2017-07-05T12:09:23.387Z,16048
2017-07-05T12:10:23.430Z,16408
2017-07-05T12:11:23.481Z,16960
2017-07-05T12:12:23.528Z,17632
2017-07-05T12:13:23.573Z,18080
2017-07-05T12:14:23.619Z,18368
2017-07-05T12:15:23.665Z,18368
2017-07-05T12:16:23.714Z,18144
2017-07-05T12:17:23.750Z,17920
2017-07-05T12:18:23.798Z,17632
2017-07-05T12:19:23.841Z,17280
2017-07-05T12:20:23.898Z,17120
2017-07-05T12:21:23.939Z,17152
2017-07-05T12:22:23.990Z,17088
2017-07-05T12:23:24.026Z,17152
2017-07-05T12:24:24.133Z,16364
2017-07-05T12:25:24.127Z,15644
2017-07-05T12:26:24.168Z,15120
2017-07-05T12:27:24.212Z,14416
2017-07-05T12:28:24.257Z,13848
2017-07-05T12:29:24.313Z,13696
2017-07-05T12:30:24.348Z,13852
2017-07-05T12:31:24.398Z,14020
2017-07-05T12:32:24.441Z,13876
2017-07-05T12:33:24.486Z,13324
2017-07-05T12:34:24.534Z,12796
2017-07-05T12:35:24.579Z,12772
2017-07-05T12:36:24.632Z,13008
2017-07-05T12:37:24.671Z,12628
2017-07-05T12:38:24.751Z,13000
2017-07-05T12:39:24.763Z,12852
2017-07-05T12:40:24.814Z,13528
2017-07-05T12:41:24.856Z,13588
2017-07-05T12:42:24.899Z,14380
2017-07-05T12:43:24.950Z,12888
2017-07-05T12:44:24.992Z,11532
2017-07-05T12:45:25.039Z,10364
2017-07-05T12:46:25.091Z,11596
2017-07-05T12:47:25.134Z,12320
2017-07-05T12:48:25.403Z,11168
2017-07-05T12:49:25.220Z,10512
2017-07-05T12:50:25.268Z,10500
2017-07-05T12:51:25.319Z,11244
2017-07-05T12:52:25.676Z,11216
2017-07-05T12:53:25.403Z,10460
2017-07-05T12:54:25.453Z,9868
2017-07-05T12:55:25.493Z,10192
2017-07-05T12:56:25.538Z,10924
2017-07-05T12:57:25.594Z,12576
2017-07-05T12:58:25.957Z,14596
2017-07-05T12:59:25.682Z,15460
2017-07-05T13:00:25.725Z,14420
2017-07-05T13:01:25.776Z,13200
2017-07-05T13:02:25.811Z,13012
2017-07-05T13:03:25.863Z,12700
2017-07-05T13:04:25.908Z,11876
2017-07-05T13:05:25.949Z,11360
2017-07-05T13:06:25.993Z,11888
2017-07-05T13:07:26.035Z,13100
2017-07-05T13:08:26.081Z,13472
2017-07-05T13:09:26.136Z,13516
2017-07-05T13:10:26.178Z,13864
2017-07-05T13:11:26.232Z,14092
2017-07-05T13:12:26.274Z,14384
2017-07-05T13:13:26.314Z,14504
2017-07-05T13:14:26.356Z,14004
2017-07-05T13:15:26.406Z,12216
2017-07-05T13:16:26.446Z,11280
2017-07-05T13:17:26.490Z,10192
2017-07-05T13:18:26.537Z,10408
2017-07-05T13:19:26.590Z,10444
2017-07-05T13:20:26.628Z,9664
2017-07-05T13:21:26.675Z,9016
2017-07-05T13:22:26.717Z,8100
2017-07-05T13:23:26.764Z,7688
2017-07-05T13:24:26.811Z,7732
2017-07-05T13:25:26.869Z,6868